createdAt,value
2018-12-05T11:45:48.270Z,1029.26
2018-12-05T11:47:15.134Z,1029.26
2018-12-05T11:51:17.161Z,1029.24
2018-12-05T11:52:43.745Z,1029.28
2018-12-05T11:54:11.070Z,1029.27
2018-12-05T11:55:38.364Z,1029.25
2018-12-05T11:57:05.624Z,1029.21
2018-12-05T12:07:16.292Z,1029.20
2018-12-05T12:14:02.883Z,1029.18
2018-12-05T12:15:29.465Z,1029.17
2018-12-05T12:16:56.604Z,1029.15
2018-12-05T12:18:24.034Z,1029.15
2018-12-05T12:19:51.129Z,1029.11
2018-12-05T12:21:18.515Z,1029.09
2018-12-05T12:22:45.921Z,1029.09
2018-12-05T12:24:13.093Z,1029.07
2018-12-05T12:25:40.345Z,1029.10
2018-12-05T12:27:07.700Z,1029.08
2018-12-05T12:28:35.137Z,1029.10
2018-12-05T12:30:02.333Z,1029.07
2018-12-05T12:31:29.689Z,1029.03
2018-12-05T12:32:57.099Z,1029.02
2018-12-05T12:34:24.138Z,1028.97
2018-12-05T12:35:51.563Z,1028.98
2018-12-05T12:37:18.835Z,1028.93
2018-12-05T12:38:46.066Z,1028.90
2018-12-05T12:40:13.390Z,1028.88
2018-12-05T12:47:58.721Z,1028.81
2018-12-05T12:49:25.236Z,1028.80
2018-12-05T12:50:52.462Z,1028.78
2018-12-05T12:52:19.762Z,1028.77
2018-12-05T12:53:47.079Z,1028.73
2018-12-05T12:55:14.616Z,1028.69
2018-12-05T12:56:41.704Z,1028.71
2018-12-05T12:58:08.952Z,1028.67
2018-12-05T12:59:36.225Z,1028.68
2018-12-05T13:01:03.518Z,1028.68
2018-12-05T13:02:30.833Z,1028.64
2018-12-05T13:03:58.190Z,1028.62
2018-12-05T13:05:25.569Z,1028.65
2018-12-05T13:06:52.899Z,1028.63
2018-12-05T13:08:20.214Z,1028.60
2018-12-05T13:09:47.690Z,1028.57
2018-12-05T13:11:15.068Z,1028.55
2018-12-05T13:12:42.559Z,1028.55
2018-12-05T13:14:09.889Z,1028.50
2018-12-05T13:15:37.321Z,1028.46
2018-12-05T13:17:04.433Z,1028.42
2018-12-05T13:18:31.936Z,1028.42
2018-12-05T13:19:59.142Z,1028.44
2018-12-05T13:21:26.568Z,1028.44
2018-12-05T13:22:54.046Z,1028.45
2018-12-05T13:24:21.516Z,1028.43
2018-12-05T13:25:48.603Z,1028.40
2018-12-05T13:27:16.026Z,1028.39
2018-12-05T13:28:43.315Z,1028.35
2018-12-05T13:30:12.454Z,1028.34
2018-12-05T13:31:38.071Z,1028.33
2018-12-05T13:33:05.411Z,1028.34
2018-12-05T13:34:32.850Z,1028.34
2018-12-05T13:36:00.147Z,1028.34
2018-12-05T13:37:27.601Z,1028.32
2018-12-05T13:38:55.012Z,1028.31
2018-12-05T13:40:25.460Z,1028.31
2018-12-05T13:41:49.943Z,1028.28
2018-12-05T13:43:17.253Z,1028.25
2018-12-05T13:44:44.342Z,1028.25
2018-12-05T13:46:11.460Z,1028.23
2018-12-05T13:47:38.745Z,1028.24
2018-12-05T13:49:06.089Z,1028.23
2018-12-05T13:50:33.396Z,1028.24
2018-12-05T13:52:00.858Z,1028.24
2018-12-05T13:53:28.035Z,1028.25
2018-12-05T13:54:55.336Z,1028.25
2018-12-05T13:56:22.579Z,1028.24
2018-12-05T13:57:49.992Z,1028.23
2018-12-05T13:59:17.423Z,1028.20
2018-12-05T14:00:44.687Z,1028.18
2018-12-05T14:02:11.943Z,1028.15
2018-12-05T14:03:39.083Z,1028.16
2018-12-05T14:05:06.358Z,1028.15
2018-12-05T14:06:33.635Z,1028.13
2018-12-05T14:08:00.859Z,1028.14
2018-12-05T14:09:28.186Z,1028.12
2018-12-05T14:10:55.464Z,1028.13
2018-12-05T14:12:22.769Z,1028.12
2018-12-05T14:13:50.221Z,1028.16
2018-12-05T14:15:17.544Z,1028.18
2018-12-05T14:16:44.652Z,1028.17
2018-12-05T14:18:11.940Z,1028.16
2018-12-05T14:19:39.205Z,1028.14
2018-12-05T14:22:14.610Z,1028.18
2018-12-05T14:36:56.351Z,1028.05
2018-12-05T14:38:22.965Z,1028.04
2018-12-05T14:39:50.108Z,1028.06
2018-12-05T14:41:17.222Z,1028.03
2018-12-05T14:42:44.468Z,1028.05
2018-12-05T14:44:11.744Z,1028.07
2018-12-05T14:45:39.088Z,1028.06
2018-12-05T14:47:06.380Z,1028.06
2018-12-05T15:02:46.509Z,1027.86
2018-12-05T15:04:13.280Z,1027.83
2018-12-05T15:05:40.385Z,1027.81
2018-12-05T15:07:07.641Z,1027.80
2018-12-05T15:08:34.933Z,1027.79
2018-12-05T15:10:02.189Z,1027.79
2018-12-05T15:11:29.550Z,1027.79
2018-12-05T15:12:59.842Z,1027.79
2018-12-05T15:34:55.248Z,1027.73
2018-12-05T15:36:21.730Z,1027.71
2018-12-05T15:37:48.664Z,1027.70
2018-12-05T15:39:15.791Z,1027.73
2018-12-05T15:40:43.030Z,1027.75
2018-12-05T15:42:10.381Z,1027.73
2018-12-05T16:04:37.777Z,1027.54
2018-12-05T17:45:44.644Z,1026.73
2018-12-05T17:47:11.162Z,1026.69
2018-12-05T17:48:38.125Z,1026.68
2018-12-05T19:49:28.092Z,1025.56
2018-12-05T19:53:49.174Z,1025.48
2018-12-05T19:56:33.237Z,1025.42
2018-12-05T19:58:28.809Z,1025.35
2018-12-05T20:34:58.868Z,1024.90
2018-12-05T20:36:25.227Z,1024.88
2018-12-05T20:37:52.281Z,1024.92
2018-12-05T20:39:25.680Z,1024.92
2018-12-05T20:40:46.685Z,1024.91
2018-12-05T20:42:13.908Z,1024.93
2018-12-05T20:43:41.163Z,1024.92
2018-12-05T20:45:08.295Z,1024.93
2018-12-05T20:46:35.369Z,1024.93
2018-12-05T20:48:02.454Z,1024.90
2018-12-05T20:49:29.717Z,1024.90
2018-12-05T20:59:59.663Z,1024.93
2018-12-05T21:01:26.226Z,1024.94
2018-12-05T21:02:53.008Z,1024.91
2018-12-05T21:04:20.329Z,1024.92
2018-12-05T21:05:47.512Z,1024.90
2018-12-05T21:07:14.736Z,1024.91
2018-12-05T21:08:41.436Z,1024.91
2018-12-05T21:10:08.687Z,1024.88
2018-12-05T21:11:35.832Z,1024.83
2018-12-05T21:13:03.001Z,1024.83
2018-12-05T21:14:30.191Z,1024.80
2018-12-05T21:15:57.482Z,1024.76
2018-12-05T21:17:24.789Z,1024.75
2018-12-05T21:18:51.704Z,1024.70
2018-12-05T21:20:18.921Z,1024.69
2018-12-05T21:21:46.014Z,1024.71
2018-12-05T21:47:36.715Z,1024.20
2018-12-05T21:49:03.226Z,1024.18
2018-12-05T21:50:49.749Z,1024.11
2018-12-05T21:52:16.509Z,1024.07
2018-12-05T22:08:25.528Z,1023.68
2018-12-05T22:09:52.150Z,1023.67
2018-12-05T22:11:18.985Z,1023.67
2018-12-05T22:12:46.091Z,1023.68
2018-12-05T22:14:13.210Z,1023.67
2018-12-05T22:15:40.361Z,1023.65
2018-12-05T22:17:07.614Z,1023.64
2018-12-05T22:18:34.842Z,1023.66
2018-12-05T22:20:01.992Z,1023.65
2018-12-05T22:21:29.051Z,1023.65
2018-12-05T22:22:56.092Z,1023.61
2018-12-05T22:24:23.300Z,1023.59
2018-12-05T22:25:50.400Z,1023.53
2018-12-05T22:27:17.650Z,1023.54
2018-12-05T22:28:44.879Z,1023.50
2018-12-05T22:30:11.973Z,1023.48
2018-12-05T22:31:39.088Z,1023.46
2018-12-05T22:33:06.343Z,1023.39
2018-12-05T22:34:33.515Z,1023.37
2018-12-05T22:36:00.549Z,1023.31
2018-12-05T22:37:27.728Z,1023.29
2018-12-05T22:38:54.671Z,1023.28
2018-12-05T22:40:21.705Z,1023.26
2018-12-05T22:41:49.015Z,1023.26
2018-12-05T22:43:16.194Z,1023.22
2018-12-05T22:44:43.037Z,1023.22
2018-12-05T22:46:10.214Z,1023.18
2018-12-05T22:47:37.458Z,1023.17
2018-12-05T22:49:04.715Z,1023.14
2018-12-05T22:50:31.996Z,1023.10
2018-12-05T22:51:59.167Z,1023.08
2018-12-05T22:53:26.261Z,1023.02
2018-12-05T22:54:53.463Z,1023.02
2018-12-05T22:56:20.616Z,1022.98
2018-12-05T22:57:47.964Z,1022.96
2018-12-05T22:59:15.062Z,1022.93
2018-12-05T23:00:42.254Z,1022.92
2018-12-05T23:02:09.468Z,1022.88
2018-12-05T23:03:36.597Z,1022.86
2018-12-05T23:05:06.828Z,1022.85
2018-12-05T23:06:30.900Z,1022.83
2018-12-05T23:07:58.144Z,1022.80
2018-12-05T23:09:25.355Z,1022.78
2018-12-05T23:10:52.405Z,1022.74
2018-12-05T23:12:19.565Z,1022.78
2018-12-05T23:13:46.648Z,1022.79
2018-12-05T23:15:13.904Z,1022.78
2018-12-05T23:16:41.066Z,1022.75
2018-12-05T23:18:08.363Z,1022.76
2018-12-05T23:19:35.735Z,1022.75
2018-12-05T23:21:02.654Z,1022.72
2018-12-05T23:22:29.979Z,1022.70
2018-12-05T23:23:57.128Z,1022.70
2018-12-05T23:25:24.324Z,1022.65
2018-12-05T23:26:51.317Z,1022.64
2018-12-05T23:28:18.341Z,1022.62
2018-12-05T23:29:45.591Z,1022.63
2018-12-05T23:31:12.665Z,1022.60
2018-12-05T23:32:39.992Z,1022.57
2018-12-05T23:34:07.036Z,1022.52
2018-12-05T23:35:34.262Z,1022.50
2018-12-05T23:37:01.257Z,1022.48
2018-12-05T23:38:28.618Z,1022.47
2018-12-05T23:39:55.652Z,1022.45
2018-12-05T23:41:22.846Z,1022.43
2018-12-05T23:42:50.026Z,1022.42
2018-12-05T23:44:17.250Z,1022.36
2018-12-05T23:45:44.404Z,1022.36
2018-12-05T23:47:11.666Z,1022.35
2018-12-05T23:48:38.908Z,1022.39
2018-12-05T23:50:06.057Z,1022.36
2018-12-05T23:51:33.153Z,1022.37
2018-12-05T23:53:00.415Z,1022.35
2018-12-05T23:54:27.529Z,1022.31
2018-12-05T23:55:54.610Z,1022.26
2018-12-05T23:57:21.954Z,1022.22
2018-12-05T23:58:49.069Z,1022.16
